createdAt,value
2022-08-09T00:01:52.820Z,24.50
2022-08-09T00:05:00.814Z,24.50
2022-08-09T00:08:32.423Z,24.50
2022-08-09T00:12:03.688Z,24.50
2022-08-09T00:14:57.337Z,24.50
2022-08-09T00:18:06.178Z,24.50
2022-08-09T00:21:13.527Z,24.50
2022-08-09T00:24:15.362Z,24.50
2022-08-09T00:27:17.140Z,24.50
2022-08-09T00:30:26.127Z,24.50
2022-08-09T00:33:32.540Z,24.50
2022-08-09T00:36:50.842Z,24.50
2022-08-09T00:40:14.161Z,24.50
2022-08-09T00:44:19.182Z,24.50
2022-08-09T00:46:56.453Z,24.50
2022-08-09T00:49:59.645Z,24.50
2022-08-09T00:53:10.532Z,24.50
2022-08-09T00:56:14.993Z,24.50
2022-08-09T00:59:40.492Z,24.50
2022-08-09T01:03:06.752Z,24.50
2022-08-09T01:06:19.563Z,24.50
2022-08-09T01:09:53.948Z,24.50
2022-08-09T01:13:13.007Z,24.40
2022-08-09T01:16:24.809Z,24.40
2022-08-09T01:20:01.457Z,24.40
2022-08-09T01:24:03.012Z,24.40
2022-08-09T01:27:11.686Z,24.40
2022-08-09T01:30:33.524Z,24.40
2022-08-09T01:33:41.242Z,24.40
2022-08-09T01:36:45.013Z,24.50
2022-08-09T01:39:51.817Z,24.40
2022-08-09T01:42:55.383Z,24.40
2022-08-09T01:45:58.316Z,24.40
2022-08-09T01:49:09.591Z,24.40
2022-08-09T01:52:15.105Z,24.50
2022-08-09T01:55:18.846Z,24.40
2022-08-09T01:58:24.111Z,24.40
2022-08-09T02:01:58.100Z,24.50
2022-08-09T02:04:53.663Z,24.40
2022-08-09T02:08:38.849Z,24.40
2022-08-09T02:11:23.705Z,24.40
2022-08-09T02:14:28.686Z,24.40
2022-08-09T02:18:01.469Z,24.40
2022-08-09T02:21:17.297Z,24.40
2022-08-09T02:24:29.746Z,24.40
2022-08-09T02:27:43.546Z,24.40
2022-08-09T02:31:18.215Z,24.40
2022-08-09T02:34:40.644Z,24.40
2022-08-09T02:37:55.389Z,24.40
2022-08-09T02:41:09.174Z,24.40
2022-08-09T02:44:30.122Z,24.40
2022-08-09T02:47:58.121Z,24.40
2022-08-09T02:50:58.895Z,24.40
2022-08-09T02:54:05.089Z,24.40
2022-08-09T02:57:14.107Z,24.40
2022-08-09T03:00:26.359Z,24.40
2022-08-09T03:03:37.314Z,24.40
2022-08-09T03:06:54.161Z,24.40
2022-08-09T03:10:00.498Z,24.40
2022-08-09T03:13:03.851Z,24.40
2022-08-09T03:16:10.778Z,24.40
2022-08-09T03:19:14.433Z,24.40
2022-08-09T03:22:41.307Z,24.40
2022-08-09T03:25:59.100Z,24.40
2022-08-09T03:29:09.648Z,24.40
2022-08-09T03:32:17.236Z,24.50
2022-08-09T03:35:24.602Z,24.50
2022-08-09T03:38:44.759Z,24.50
2022-08-09T03:41:48.675Z,24.50
2022-08-09T03:44:50.634Z,24.40
2022-08-09T03:47:52.657Z,24.40
2022-08-09T03:50:55.046Z,24.40
2022-08-09T03:53:59.749Z,24.30
2022-08-09T03:57:18.649Z,24.20
2022-08-09T04:00:23.328Z,24.20
2022-08-09T04:03:45.990Z,24.30
2022-08-09T04:06:48.879Z,24.30
2022-08-09T04:09:53.677Z,24.30
2022-08-09T04:12:55.646Z,24.30
2022-08-09T04:16:20.134Z,24.30
2022-08-09T04:19:30.252Z,24.30
2022-08-09T04:22:44.579Z,24.30
2022-08-09T04:25:51.698Z,24.30
2022-08-09T04:28:58.220Z,24.20
2022-08-09T04:32:02.364Z,24.00
2022-08-09T04:35:10.356Z,24.10
2022-08-09T04:38:12.229Z,24.10
2022-08-09T04:41:14.027Z,24.20
2022-08-09T04:44:16.324Z,24.20
2022-08-09T04:47:18.363Z,24.20
2022-08-09T04:50:20.147Z,24.30
2022-08-09T04:53:26.447Z,24.30
2022-08-09T04:56:29.768Z,24.30
2022-08-09T04:59:32.199Z,24.30
2022-08-09T05:02:34.131Z,24.40
2022-08-09T05:05:52.722Z,24.30
2022-08-09T05:09:00.441Z,24.30
2022-08-09T05:12:03.530Z,24.40
2022-08-09T05:15:11.373Z,24.40
2022-08-09T05:18:37.603Z,24.40
2022-08-09T05:21:46.481Z,24.40
2022-08-09T05:24:49.413Z,24.40
2022-08-09T05:27:59.149Z,24.40
2022-08-09T05:31:09.345Z,24.40
2022-08-09T05:34:16.847Z,24.40
2022-08-09T05:37:19.119Z,24.40
2022-08-09T05:40:21.667Z,24.40
2022-08-09T05:43:23.881Z,24.40
2022-08-09T05:46:31.390Z,24.40
2022-08-09T05:50:11.071Z,24.40
2022-08-09T05:52:55.403Z,24.40
2022-08-09T05:55:57.218Z,24.40
2022-08-09T05:58:59.214Z,24.40
2022-08-09T06:02:01.090Z,24.40
2022-08-09T06:05:04.335Z,24.40
2022-08-09T06:08:08.107Z,24.40
2022-08-09T06:11:17.360Z,24.40
2022-08-09T06:14:19.711Z,24.40
2022-08-09T06:17:21.774Z,24.40
2022-08-09T06:20:23.546Z,24.40
2022-08-09T06:23:57.519Z,24.40
2022-08-09T06:26:50.079Z,24.50
2022-08-09T06:30:04.255Z,24.40
2022-08-09T06:33:30.573Z,24.50
2022-08-09T06:36:32.302Z,24.50
2022-08-09T06:39:49.105Z,24.50
2022-08-09T06:42:56.018Z,24.50
2022-08-09T06:46:05.083Z,24.50
2022-08-09T06:49:12.786Z,24.50
2022-08-09T06:52:18.125Z,24.50
2022-08-09T06:55:23.390Z,24.50
2022-08-09T07:00:46.591Z,24.50
2022-08-09T07:01:54.284Z,24.50
2022-08-09T07:05:00.941Z,24.60
2022-08-09T07:08:02.825Z,24.60
2022-08-09T07:11:07.030Z,24.50
2022-08-09T07:14:08.954Z,24.60
2022-08-09T07:17:10.737Z,24.50
2022-08-09T07:20:15.760Z,24.50
2022-08-09T07:23:19.230Z,24.60
2022-08-09T07:26:21.597Z,24.60
2022-08-09T07:29:25.235Z,24.60
2022-08-09T07:32:32.875Z,24.60
2022-08-09T07:35:39.822Z,24.60
2022-08-09T07:39:00.914Z,24.60
2022-08-09T07:42:05.097Z,24.60
2022-08-09T07:45:22.644Z,24.60
2022-08-09T07:48:31.718Z,24.60
2022-08-09T07:52:05.485Z,24.60
2022-08-09T07:54:55.456Z,24.60
2022-08-09T07:57:59.378Z,24.60
2022-08-09T08:01:06.355Z,24.60
2022-08-09T08:04:12.785Z,24.60
2022-08-09T08:08:06.239Z,24.60
2022-08-09T08:10:37.631Z,24.60
2022-08-09T08:13:45.162Z,24.60
2022-08-09T08:17:07.436Z,24.60
2022-08-09T08:20:13.010Z,24.60
2022-08-09T08:23:17.785Z,24.60
2022-08-09T08:26:26.613Z,24.60
2022-08-09T08:29:48.504Z,24.60
2022-08-09T08:32:54.718Z,24.60
2022-08-09T08:35:59.846Z,24.60
2022-08-09T08:39:03.060Z,24.60
2022-08-09T08:42:05.841Z,24.60
2022-08-09T08:45:11.989Z,24.60
2022-08-09T08:48:16.819Z,24.60
2022-08-09T08:51:25.715Z,24.60
2022-08-09T08:54:29.873Z,24.60
2022-08-09T08:57:35.482Z,24.60
2022-08-09T09:00:39.866Z,24.60
2022-08-09T09:03:42.756Z,24.60
2022-08-09T09:06:48.223Z,24.60
2022-08-09T09:09:59.653Z,24.60
2022-08-09T09:13:09.258Z,24.70
2022-08-09T09:16:11.924Z,24.60
2022-08-09T09:19:41.123Z,24.60
2022-08-09T09:23:02.373Z,24.70
2022-08-09T09:26:12.272Z,24.60
2022-08-09T09:29:16.865Z,24.70
2022-08-09T09:32:34.318Z,24.60
2022-08-09T09:36:01.820Z,24.60
2022-08-09T09:39:09.956Z,24.70
2022-08-09T09:42:24.434Z,24.70
2022-08-09T09:45:30.838Z,24.70
2022-08-09T09:48:33.687Z,24.70
2022-08-09T09:51:38.543Z,24.70
2022-08-09T09:54:48.715Z,24.70
2022-08-09T09:58:17.376Z,24.70
2022-08-09T10:01:36.935Z,24.60
2022-08-09T10:04:40.694Z,24.70
2022-08-09T10:08:11.114Z,24.70
2022-08-09T10:11:59.323Z,24.70
2022-08-09T10:14:48.417Z,24.70
2022-08-09T10:17:56.744Z,24.70
2022-08-09T10:21:11.466Z,24.70
2022-08-09T10:24:16.107Z,24.70
2022-08-09T10:27:34.675Z,24.70
2022-08-09T10:34:10.893Z,24.70
2022-08-09T10:37:29.114Z,24.70
2022-08-09T10:40:41.002Z,24.70
2022-08-09T10:43:59.466Z,24.70
2022-08-09T10:48:12.851Z,24.70
2022-08-09T10:51:14.925Z,24.70
2022-08-09T10:54:24.016Z,24.70
2022-08-09T10:57:37.600Z,24.70
2022-08-09T11:01:11.182Z,24.70
2022-08-09T11:04:20.027Z,24.70
2022-08-09T11:07:57.270Z,24.70
2022-08-09T11:10:59.931Z,24.70
2022-08-09T11:14:28.061Z,24.70
2022-08-09T11:17:31.035Z,24.70
2022-08-09T11:20:45.422Z,24.70
2022-08-09T11:24:00.332Z,24.70
2022-08-09T11:27:25.502Z,24.70
2022-08-09T11:30:48.112Z,24.70
2022-08-09T11:33:54.362Z,24.70
2022-08-09T11:36:59.101Z,24.70
2022-08-09T11:40:20.111Z,24.70
2022-08-09T11:43:28.114Z,24.70
2022-08-09T11:46:52.857Z,24.70
2022-08-09T11:50:54.407Z,24.70
2022-08-09T11:54:01.041Z,24.70
2022-08-09T11:56:48.446Z,24.70
2022-08-09T11:59:52.497Z,24.70
2022-08-09T12:02:57.568Z,24.70
2022-08-09T12:06:01.559Z,24.70
2022-08-09T12:09:15.243Z,24.70
2022-08-09T12:12:29.175Z,24.70
2022-08-09T12:15:49.134Z,24.70
2022-08-09T12:18:53.875Z,24.70
2022-08-09T12:22:00.693Z,24.70
2022-08-09T12:25:37.928Z,24.70
2022-08-09T12:29:13.368Z,24.70
2022-08-09T12:32:10.891Z,24.70
2022-08-09T12:35:17.041Z,24.70
2022-08-09T12:38:29.587Z,24.70
2022-08-09T12:41:40.659Z,24.70
2022-08-09T12:44:52.012Z,24.70
2022-08-09T12:47:56.545Z,24.70
2022-08-09T12:51:00.152Z,24.70
2022-08-09T12:54:07.463Z,24.70
2022-08-09T12:57:09.300Z,24.70
2022-08-09T13:00:29.311Z,24.80
2022-08-09T13:03:58.946Z,24.70
2022-08-09T13:06:58.011Z,24.80
2022-08-09T13:10:04.235Z,24.70
2022-08-09T13:13:09.982Z,24.70
2022-08-09T13:16:15.789Z,24.70
2022-08-09T13:20:08.900Z,24.70
2022-08-09T13:23:04.954Z,24.70
2022-08-09T13:26:42.499Z,24.80
2022-08-09T13:30:04.176Z,24.80
2022-08-09T13:33:24.031Z,24.80
2022-08-09T13:36:40.336Z,24.80
2022-08-09T13:41:55.681Z,24.80
2022-08-09T13:43:10.086Z,24.80
2022-08-09T13:47:17.959Z,24.80
2022-08-09T13:49:57.814Z,24.80
2022-08-09T13:53:01.907Z,24.70
2022-08-09T13:56:05.601Z,24.80
2022-08-09T13:59:07.389Z,24.80
2022-08-09T14:02:09.982Z,24.80
2022-08-09T14:05:12.282Z,24.80
2022-08-09T14:08:33.779Z,24.80
2022-08-09T14:11:41.335Z,24.80
2022-08-09T14:14:53.710Z,24.80
2022-08-09T14:18:16.504Z,24.80
2022-08-09T14:21:23.379Z,24.80
2022-08-09T14:24:32.057Z,24.80
2022-08-09T14:27:34.291Z,24.80
2022-08-09T14:30:55.869Z,24.80
2022-08-09T14:33:57.827Z,24.80
2022-08-09T14:37:02.825Z,24.80
2022-08-09T14:40:09.686Z,24.80
2022-08-09T14:43:12.586Z,24.80
2022-08-09T14:46:51.325Z,24.80
2022-08-09T14:50:01.262Z,24.80
2022-08-09T14:53:11.228Z,24.80
2022-08-09T14:56:13.777Z,24.80
2022-08-09T14:59:15.937Z,24.80
2022-08-09T15:02:17.748Z,24.80
2022-08-09T15:05:22.227Z,24.80
2022-08-09T15:08:24.487Z,24.80
2022-08-09T15:11:26.366Z,24.80
2022-08-09T15:14:34.053Z,24.80
2022-08-09T15:17:41.506Z,24.80
2022-08-09T15:21:56.277Z,24.80
2022-08-09T15:24:13.013Z,24.80
2022-08-09T15:27:18.028Z,24.80
2022-08-09T15:30:58.436Z,24.80
2022-08-09T15:34:31.775Z,24.80
2022-08-09T15:37:38.024Z,24.80
2022-08-09T15:40:53.047Z,24.80
2022-08-09T15:43:55.521Z,24.80
2022-08-09T15:46:57.280Z,24.80
2022-08-09T15:50:05.013Z,24.80
2022-08-09T15:54:02.181Z,24.80
2022-08-09T15:56:30.777Z,24.80
2022-08-09T15:59:37.014Z,24.80
2022-08-09T16:02:39.643Z,24.80
2022-08-09T16:05:53.318Z,24.80
2022-08-09T16:09:00.813Z,24.80
2022-08-09T16:12:03.322Z,24.80
2022-08-09T16:16:10.003Z,24.80
2022-08-09T16:18:29.186Z,24.80
2022-08-09T16:21:31.775Z,24.80
2022-08-09T16:24:36.918Z,24.80
2022-08-09T16:27:40.765Z,24.80
2022-08-09T16:30:44.311Z,24.80
2022-08-09T16:33:47.405Z,24.80
2022-08-09T16:36:49.202Z,24.80
2022-08-09T16:40:04.859Z,24.80
2022-08-09T16:43:07.852Z,24.80
2022-08-09T16:46:10.905Z,24.80
2022-08-09T16:49:27.092Z,24.80
2022-08-09T16:52:36.329Z,24.80
2022-08-09T16:55:57.843Z,24.80
2022-08-09T16:59:06.492Z,24.80
2022-08-09T17:02:13.710Z,24.80
2022-08-09T17:05:20.044Z,24.80
2022-08-09T17:08:44.166Z,24.90
2022-08-09T17:11:44.338Z,24.80
2022-08-09T17:14:57.669Z,24.80
2022-08-09T17:18:00.682Z,24.80
2022-08-09T17:21:04.051Z,24.80
2022-08-09T17:24:27.433Z,24.80
2022-08-09T17:27:28.204Z,24.80
2022-08-09T17:30:30.568Z,24.80
2022-08-09T17:33:35.820Z,24.80
2022-08-09T17:36:40.505Z,24.80
2022-08-09T17:39:55.786Z,24.80
2022-08-09T17:43:03.137Z,24.80
2022-08-09T17:46:12.790Z,24.80
2022-08-09T17:49:18.792Z,24.80
2022-08-09T17:52:22.395Z,24.80
2022-08-09T17:55:24.450Z,24.80
2022-08-09T17:58:46.285Z,24.80
2022-08-09T18:02:06.743Z,24.80
2022-08-09T18:05:12.923Z,24.80
2022-08-09T18:08:15.118Z,24.80
2022-08-09T18:11:18.455Z,24.80
2022-08-09T18:14:26.235Z,24.80
2022-08-09T18:18:02.208Z,24.80
2022-08-09T18:20:55.000Z,24.80
2022-08-09T18:24:12.782Z,24.80
2022-08-09T18:27:49.270Z,24.80
2022-08-09T18:30:49.078Z,24.80
2022-08-09T18:33:53.075Z,24.80
2022-08-09T18:36:55.827Z,24.90
2022-08-09T18:39:57.888Z,24.80
2022-08-09T18:42:59.752Z,24.80
2022-08-09T18:46:50.297Z,24.80
2022-08-09T18:49:23.999Z,24.80
2022-08-09T18:52:34.724Z,24.80
2022-08-09T18:55:56.106Z,24.80
2022-08-09T18:59:01.105Z,24.80
2022-08-09T19:02:03.653Z,24.80
2022-08-09T19:05:20.491Z,24.80
2022-08-09T19:08:28.994Z,24.80
2022-08-09T19:11:35.437Z,24.80
2022-08-09T19:14:43.480Z,24.80
2022-08-09T19:17:52.525Z,24.80
2022-08-09T19:20:58.783Z,24.80
2022-08-09T19:24:35.417Z,24.80
2022-08-09T19:27:28.462Z,24.80
2022-08-09T19:30:32.399Z,24.80
2022-08-09T19:33:34.917Z,24.80
2022-08-09T19:36:36.964Z,24.80
2022-08-09T19:40:04.382Z,24.80
2022-08-09T19:43:10.337Z,24.80
2022-08-09T19:46:34.127Z,24.80
2022-08-09T19:50:07.709Z,24.80
2022-08-09T19:53:02.497Z,24.90
2022-08-09T19:56:06.808Z,24.80
2022-08-09T19:59:39.992Z,24.80
2022-08-09T20:04:12.725Z,24.80
2022-08-09T20:05:52.293Z,24.80
2022-08-09T20:08:55.543Z,24.80
2022-08-09T20:12:02.328Z,24.80
2022-08-09T20:16:31.860Z,24.80
2022-08-09T20:18:28.444Z,24.80
2022-08-09T20:21:40.740Z,24.80
2022-08-09T20:24:54.204Z,24.80
2022-08-09T20:27:56.472Z,24.80
2022-08-09T20:30:58.330Z,24.80
2022-08-09T20:34:02.289Z,24.80
2022-08-09T20:37:04.376Z,24.80
2022-08-09T20:40:16.227Z,24.80
2022-08-09T20:43:25.389Z,24.80
2022-08-09T20:46:41.809Z,24.80
2022-08-09T20:49:45.103Z,24.80
2022-08-09T20:52:46.929Z,24.80
2022-08-09T20:56:02.322Z,24.80
2022-08-09T20:59:04.952Z,24.80
2022-08-09T21:02:07.679Z,24.80
2022-08-09T21:05:51.968Z,24.90
2022-08-09T21:08:36.371Z,24.90
2022-08-09T21:15:02.584Z,24.90
2022-08-09T21:18:24.158Z,24.90
2022-08-09T21:21:46.899Z,25.00
2022-08-09T21:25:07.825Z,24.90
2022-08-09T21:28:12.057Z,24.90
2022-08-09T21:31:19.681Z,24.90
2022-08-09T21:34:29.080Z,24.90
2022-08-09T21:37:35.535Z,24.90
2022-08-09T21:40:50.738Z,24.90
2022-08-09T21:43:58.011Z,24.90
2022-08-09T21:47:00.729Z,24.90
2022-08-09T21:50:04.964Z,24.90
2022-08-09T21:53:15.736Z,24.90
2022-08-09T21:56:42.974Z,24.90
2022-08-09T21:59:46.931Z,24.90
2022-08-09T22:02:51.289Z,24.90
2022-08-09T22:06:00.959Z,24.90
2022-08-09T22:09:03.509Z,24.90
2022-08-09T22:12:18.494Z,24.90
2022-08-09T22:15:33.346Z,24.90
2022-08-09T22:18:52.904Z,24.90
2022-08-09T22:21:56.539Z,24.90
2022-08-09T22:26:07.764Z,24.90
2022-08-09T22:28:32.531Z,24.90
2022-08-09T22:31:36.106Z,24.90
2022-08-09T22:34:40.515Z,24.80
2022-08-09T22:37:43.020Z,24.90
2022-08-09T22:40:49.309Z,24.90
2022-08-09T22:44:01.755Z,24.90
2022-08-09T22:48:11.603Z,24.90
2022-08-09T22:50:28.070Z,24.90
2022-08-09T22:53:33.352Z,24.90
2022-08-09T22:56:56.491Z,24.90
2022-08-09T22:59:59.446Z,24.90
2022-08-09T23:03:01.347Z,24.90
2022-08-09T23:06:03.783Z,24.90
2022-08-09T23:09:07.067Z,24.90
2022-08-09T23:12:08.969Z,24.80
2022-08-09T23:15:11.367Z,24.90
2022-08-09T23:18:13.365Z,24.90
2022-08-09T23:21:23.928Z,24.90
2022-08-09T23:24:28.692Z,24.80
2022-08-09T23:27:30.582Z,24.90
2022-08-09T23:30:32.512Z,24.90
2022-08-09T23:33:34.325Z,24.90
2022-08-09T23:36:36.685Z,24.80
2022-08-09T23:39:38.502Z,24.80
2022-08-09T23:42:40.684Z,24.80
2022-08-09T23:45:42.593Z,24.80
2022-08-09T23:48:44.383Z,24.90
2022-08-09T23:51:46.199Z,24.80
2022-08-09T23:54:48.058Z,24.80
2022-08-09T23:58:09.469Z,24.80
